sensor_id;sensor_type;location;lat;lon;timestamp;P1;durP1;ratioP1;P2;durP2;ratioP2
64297;SDS011;50639;53.270;7.956;2023-03-14T00:00:32;28.75;;;7.65;;
64297;SDS011;50639;53.270;7.956;2023-03-14T00:02:58;35.63;;;7.88;;
64297;SDS011;50639;53.270;7.956;2023-03-14T00:05:23;31.58;;;6.32;;
64297;SDS011;50639;53.270;7.956;2023-03-14T00:07:49;29.67;;;6.78;;
64297;SDS011;50639;53.270;7.956;2023-03-14T00:10:14;29.90;;;5.97;;
64297;SDS011;50639;53.270;7.956;2023-03-14T00:12:41;33.83;;;6.80;;
64297;SDS011;50639;53.270;7.956;2023-03-14T00:15:07;23.55;;;5.35;;
64297;SDS011;50639;53.270;7.956;2023-03-14T00:17:34;29.20;;;6.37;;
64297;SDS011;50639;53.270;7.956;2023-03-14T00:20:00;32.50;;;6.72;;
64297;SDS011;50639;53.270;7.956;2023-03-14T00:22:36;25.17;;;6.65;;
64297;SDS011;50639;53.270;7.956;2023-03-14T00:25:03;29.55;;;7.75;;
64297;SDS011;50639;53.270;7.956;2023-03-14T00:27:30;23.60;;;6.47;;
64297;SDS011;50639;53.270;7.956;2023-03-14T00:29:56;38.95;;;11.75;;
64297;SDS011;50639;53.270;7.956;2023-03-14T00:32:21;27.60;;;9.55;;
64297;SDS011;50639;53.270;7.956;2023-03-14T00:34:47;34.20;;;7.90;;
64297;SDS011;50639;53.270;7.956;2023-03-14T00:37:12;43.47;;;17.25;;
64297;SDS011;50639;53.270;7.956;2023-03-14T00:39:38;44.38;;;15.77;;
64297;SDS011;50639;53.270;7.956;2023-03-14T00:42:03;28.98;;;8.77;;
64297;SDS011;50639;53.270;7.956;2023-03-14T00:44:29;34.83;;;10.75;;
64297;SDS011;50639;53.270;7.956;2023-03-14T00:46:54;42.60;;;17.10;;
64297;SDS011;50639;53.270;7.956;2023-03-14T00:49:20;26.25;;;9.57;;
64297;SDS011;50639;53.270;7.956;2023-03-14T00:51:45;36.72;;;15.07;;
64297;SDS011;50639;53.270;7.956;2023-03-14T00:54:11;31.95;;;12.23;;
64297;SDS011;50639;53.270;7.956;2023-03-14T00:56:36;27.00;;;10.07;;
64297;SDS011;50639;53.270;7.956;2023-03-14T00:59:02;36.15;;;17.02;;
64297;SDS011;50639;53.270;7.956;2023-03-14T01:01:27;37.05;;;17.60;;
64297;SDS011;50639;53.270;7.956;2023-03-14T01:03:53;33.50;;;15.75;;
64297;SDS011;50639;53.270;7.956;2023-03-14T01:06:21;32.22;;;12.20;;
64297;SDS011;50639;53.270;7.956;2023-03-14T01:08:52;48.42;;;20.02;;
64297;SDS011;50639;53.270;7.956;2023-03-14T01:11:19;32.38;;;10.43;;
64297;SDS011;50639;53.270;7.956;2023-03-14T01:13:56;25.58;;;7.30;;
64297;SDS011;50639;53.270;7.956;2023-03-14T01:16:23;34.58;;;11.75;;
64297;SDS011;50639;53.270;7.956;2023-03-14T01:18:50;32.20;;;10.88;;
64297;SDS011;50639;53.270;7.956;2023-03-14T01:21:17;25.48;;;9.25;;
64297;SDS011;50639;53.270;7.956;2023-03-14T01:23:51;31.60;;;9.30;;
64297;SDS011;50639;53.270;7.956;2023-03-14T01:26:19;21.25;;;9.38;;
64297;SDS011;50639;53.270;7.956;2023-03-14T01:28:48;32.28;;;14.43;;
64297;SDS011;50639;53.270;7.956;2023-03-14T01:31:16;28.55;;;11.38;;
64297;SDS011;50639;53.270;7.956;2023-03-14T01:33:42;32.80;;;11.93;;
64297;SDS011;50639;53.270;7.956;2023-03-14T01:36:08;18.95;;;6.80;;
64297;SDS011;50639;53.270;7.956;2023-03-14T01:38:35;21.35;;;8.05;;
64297;SDS011;50639;53.270;7.956;2023-03-14T01:41:03;22.42;;;6.10;;
64297;SDS011;50639;53.270;7.956;2023-03-14T01:43:29;21.90;;;9.13;;
64297;SDS011;50639;53.270;7.956;2023-03-14T01:48:40;20.60;;;6.68;;
64297;SDS011;50639;53.270;7.956;2023-03-14T01:51:11;21.13;;;9.43;;
64297;SDS011;50639;53.270;7.956;2023-03-14T01:53:40;19.65;;;7.60;;
64297;SDS011;50639;53.270;7.956;2023-03-14T01:56:09;23.55;;;7.47;;
64297;SDS011;50639;53.270;7.956;2023-03-14T01:58:39;21.77;;;8.18;;
64297;SDS011;50639;53.270;7.956;2023-03-14T02:01:07;19.60;;;5.25;;
64297;SDS011;50639;53.270;7.956;2023-03-14T02:03:35;17.98;;;5.47;;
64297;SDS011;50639;53.270;7.956;2023-03-14T02:06:08;16.17;;;5.35;;
64297;SDS011;50639;53.270;7.956;2023-03-14T02:08:37;15.07;;;4.95;;
64297;SDS011;50639;53.270;7.956;2023-03-14T02:11:08;15.77;;;4.75;;
64297;SDS011;50639;53.270;7.956;2023-03-14T02:13:46;16.13;;;5.03;;
64297;SDS011;50639;53.270;7.956;2023-03-14T02:16:51;12.55;;;4.28;;
64297;SDS011;50639;53.270;7.956;2023-03-14T02:19:50;13.33;;;4.13;;
64297;SDS011;50639;53.270;7.956;2023-03-14T02:22:34;13.75;;;3.60;;
64297;SDS011;50639;53.270;7.956;2023-03-14T02:27:57;7.38;;;2.60;;
64297;SDS011;50639;53.270;7.956;2023-03-14T02:30:24;5.90;;;2.57;;
64297;SDS011;50639;53.270;7.956;2023-03-14T02:32:54;9.38;;;2.50;;
64297;SDS011;50639;53.270;7.956;2023-03-14T02:35:25;9.27;;;2.50;;
64297;SDS011;50639;53.270;7.956;2023-03-14T02:37:55;8.43;;;2.55;;
64297;SDS011;50639;53.270;7.956;2023-03-14T02:40:31;8.68;;;2.72;;
64297;SDS011;50639;53.270;7.956;2023-03-14T02:42:57;9.82;;;2.92;;
64297;SDS011;50639;53.270;7.956;2023-03-14T02:50:22;10.30;;;3.03;;
64297;SDS011;50639;53.270;7.956;2023-03-14T02:52:53;13.68;;;3.78;;
64297;SDS011;50639;53.270;7.956;2023-03-14T02:55:22;12.02;;;3.50;;
64297;SDS011;50639;53.270;7.956;2023-03-14T02:57:49;11.90;;;3.50;;
64297;SDS011;50639;53.270;7.956;2023-03-14T03:00:16;14.57;;;3.78;;
64297;SDS011;50639;53.270;7.956;2023-03-14T03:02:42;14.30;;;3.88;;
64297;SDS011;50639;53.270;7.956;2023-03-14T03:05:07;15.30;;;3.92;;
64297;SDS011;50639;53.270;7.956;2023-03-14T03:07:33;13.10;;;3.25;;
64297;SDS011;50639;53.270;7.956;2023-03-14T03:09:59;17.60;;;4.03;;
64297;SDS011;50639;53.270;7.956;2023-03-14T03:12:24;19.38;;;4.72;;
64297;SDS011;50639;53.270;7.956;2023-03-14T03:14:50;21.67;;;5.40;;
64297;SDS011;50639;53.270;7.956;2023-03-14T03:17:15;13.80;;;3.85;;
64297;SDS011;50639;53.270;7.956;2023-03-14T03:19:41;19.67;;;4.63;;
64297;SDS011;50639;53.270;7.956;2023-03-14T03:22:08;19.15;;;4.63;;
64297;SDS011;50639;53.270;7.956;2023-03-14T03:24:34;20.73;;;4.28;;
64297;SDS011;50639;53.270;7.956;2023-03-14T03:27:00;16.87;;;4.43;;
64297;SDS011;50639;53.270;7.956;2023-03-14T03:29:26;15.13;;;4.78;;
64297;SDS011;50639;53.270;7.956;2023-03-14T03:31:52;20.90;;;7.63;;
64297;SDS011;50639;53.270;7.956;2023-03-14T03:34:18;20.92;;;5.32;;
64297;SDS011;50639;53.270;7.956;2023-03-14T03:36:47;19.23;;;5.82;;
64297;SDS011;50639;53.270;7.956;2023-03-14T03:39:13;20.77;;;5.63;;
64297;SDS011;50639;53.270;7.956;2023-03-14T03:44:22;25.55;;;7.03;;
64297;SDS011;50639;53.270;7.956;2023-03-14T03:46:47;19.90;;;6.80;;
64297;SDS011;50639;53.270;7.956;2023-03-14T03:49:13;31.38;;;15.65;;
64297;SDS011;50639;53.270;7.956;2023-03-14T03:51:39;15.98;;;5.10;;
64297;SDS011;50639;53.270;7.956;2023-03-14T03:54:05;25.77;;;8.38;;
64297;SDS011;50639;53.270;7.956;2023-03-14T03:56:32;19.90;;;5.07;;
64297;SDS011;50639;53.270;7.956;2023-03-14T03:58:58;19.88;;;7.05;;
64297;SDS011;50639;53.270;7.956;2023-03-14T04:01:24;22.90;;;6.32;;
64297;SDS011;50639;53.270;7.956;2023-03-14T04:03:52;18.08;;;4.88;;
64297;SDS011;50639;53.270;7.956;2023-03-14T04:06:18;17.50;;;5.90;;
64297;SDS011;50639;53.270;7.956;2023-03-14T04:08:46;15.82;;;4.68;;
64297;SDS011;50639;53.270;7.956;2023-03-14T04:11:25;19.85;;;4.63;;
64297;SDS011;50639;53.270;7.956;2023-03-14T04:13:54;15.02;;;4.53;;
64297;SDS011;50639;53.270;7.956;2023-03-14T04:16:21;12.63;;;4.30;;
64297;SDS011;50639;53.270;7.956;2023-03-14T04:18:50;14.63;;;4.40;;
64297;SDS011;50639;53.270;7.956;2023-03-14T04:21:19;17.48;;;5.15;;
64297;SDS011;50639;53.270;7.956;2023-03-14T04:23:48;15.88;;;4.90;;
64297;SDS011;50639;53.270;7.956;2023-03-14T04:26:14;15.37;;;4.50;;
64297;SDS011;50639;53.270;7.956;2023-03-14T04:28:40;9.60;;;3.85;;
64297;SDS011;50639;53.270;7.956;2023-03-14T04:31:07;11.43;;;4.33;;
64297;SDS011;50639;53.270;7.956;2023-03-14T04:36:01;8.38;;;3.20;;
64297;SDS011;50639;53.270;7.956;2023-03-14T04:38:26;11.90;;;4.10;;
64297;SDS011;50639;53.270;7.956;2023-03-14T04:40:53;11.52;;;3.70;;
64297;SDS011;50639;53.270;7.956;2023-03-14T04:43:21;13.10;;;3.80;;
64297;SDS011;50639;53.270;7.956;2023-03-14T04:45:55;10.45;;;3.53;;
64297;SDS011;50639;53.270;7.956;2023-03-14T04:48:21;14.82;;;4.20;;
64297;SDS011;50639;53.270;7.956;2023-03-14T04:50:47;9.75;;;3.33;;
64297;SDS011;50639;53.270;7.956;2023-03-14T04:53:14;7.18;;;3.10;;
64297;SDS011;50639;53.270;7.956;2023-03-14T04:55:42;10.88;;;3.72;;
64297;SDS011;50639;53.270;7.956;2023-03-14T04:58:08;10.63;;;3.28;;
64297;SDS011;50639;53.270;7.956;2023-03-14T05:00:34;13.27;;;3.95;;
64297;SDS011;50639;53.270;7.956;2023-03-14T05:03:09;14.88;;;4.60;;
64297;SDS011;50639;53.270;7.956;2023-03-14T05:06:05;12.00;;;4.20;;
64297;SDS011;50639;53.270;7.956;2023-03-14T05:08:40;11.77;;;4.03;;
64297;SDS011;50639;53.270;7.956;2023-03-14T05:11:32;13.07;;;4.18;;
64297;SDS011;50639;53.270;7.956;2023-03-14T05:14:06;12.23;;;3.63;;
64297;SDS011;50639;53.270;7.956;2023-03-14T05:16:56;14.70;;;4.15;;
64297;SDS011;50639;53.270;7.956;2023-03-14T05:19:22;11.27;;;3.90;;
64297;SDS011;50639;53.270;7.956;2023-03-14T05:22:11;14.93;;;3.83;;
64297;SDS011;50639;53.270;7.956;2023-03-14T05:25:06;12.60;;;3.40;;
64297;SDS011;50639;53.270;7.956;2023-03-14T05:27:53;13.05;;;3.90;;
64297;SDS011;50639;53.270;7.956;2023-03-14T05:30:43;12.98;;;3.65;;
64297;SDS011;50639;53.270;7.956;2023-03-14T05:33:38;10.32;;;3.47;;
64297;SDS011;50639;53.270;7.956;2023-03-14T05:36:23;11.07;;;3.60;;
64297;SDS011;50639;53.270;7.956;2023-03-14T05:38:59;16.83;;;5.93;;
64297;SDS011;50639;53.270;7.956;2023-03-14T05:41:38;12.57;;;3.50;;
64297;SDS011;50639;53.270;7.956;2023-03-14T05:44:25;9.63;;;3.25;;
64297;SDS011;50639;53.270;7.956;2023-03-14T05:47:09;12.45;;;3.50;;
64297;SDS011;50639;53.270;7.956;2023-03-14T05:49:53;16.13;;;4.47;;
64297;SDS011;50639;53.270;7.956;2023-03-14T05:52:33;9.07;;;3.03;;
64297;SDS011;50639;53.270;7.956;2023-03-14T05:55:10;11.57;;;3.33;;
64297;SDS011;50639;53.270;7.956;2023-03-14T05:57:39;13.65;;;3.75;;
64297;SDS011;50639;53.270;7.956;2023-03-14T06:00:33;13.57;;;4.20;;
64297;SDS011;50639;53.270;7.956;2023-03-14T06:03:19;13.60;;;4.68;;
64297;SDS011;50639;53.270;7.956;2023-03-14T06:05:49;16.92;;;5.95;;
64297;SDS011;50639;53.270;7.956;2023-03-14T06:08:16;12.88;;;5.03;;
64297;SDS011;50639;53.270;7.956;2023-03-14T06:10:42;12.07;;;3.90;;
64297;SDS011;50639;53.270;7.956;2023-03-14T06:13:07;13.73;;;4.15;;
64297;SDS011;50639;53.270;7.956;2023-03-14T06:15:33;21.00;;;4.30;;
64297;SDS011;50639;53.270;7.956;2023-03-14T06:18:00;11.48;;;3.58;;
64297;SDS011;50639;53.270;7.956;2023-03-14T06:20:26;12.35;;;3.67;;
64297;SDS011;50639;53.270;7.956;2023-03-14T06:22:52;16.40;;;8.15;;
64297;SDS011;50639;53.270;7.956;2023-03-14T06:25:18;19.25;;;7.05;;
64297;SDS011;50639;53.270;7.956;2023-03-14T06:27:46;17.38;;;4.22;;
64297;SDS011;50639;53.270;7.956;2023-03-14T06:30:12;13.13;;;3.70;;
64297;SDS011;50639;53.270;7.956;2023-03-14T06:32:38;11.85;;;3.72;;
64297;SDS011;50639;53.270;7.956;2023-03-14T06:35:07;9.43;;;3.40;;
64297;SDS011;50639;53.270;7.956;2023-03-14T06:37:37;12.95;;;3.65;;
64297;SDS011;50639;53.270;7.956;2023-03-14T06:40:02;11.10;;;3.80;;
64297;SDS011;50639;53.270;7.956;2023-03-14T06:42:53;10.82;;;3.58;;
64297;SDS011;50639;53.270;7.956;2023-03-14T06:45:21;12.93;;;3.70;;
64297;SDS011;50639;53.270;7.956;2023-03-14T06:47:47;12.50;;;3.25;;
64297;SDS011;50639;53.270;7.956;2023-03-14T06:50:13;13.02;;;3.17;;
64297;SDS011;50639;53.270;7.956;2023-03-14T06:52:40;14.23;;;4.53;;
64297;SDS011;50639;53.270;7.956;2023-03-14T06:55:13;10.00;;;3.78;;
64297;SDS011;50639;53.270;7.956;2023-03-14T06:57:39;10.70;;;3.58;;
64297;SDS011;50639;53.270;7.956;2023-03-14T07:00:06;13.82;;;3.75;;
64297;SDS011;50639;53.270;7.956;2023-03-14T07:02:32;17.30;;;3.87;;
64297;SDS011;50639;53.270;7.956;2023-03-14T07:05:00;14.32;;;3.70;;
64297;SDS011;50639;53.270;7.956;2023-03-14T07:07:26;16.73;;;3.95;;
64297;SDS011;50639;53.270;7.956;2023-03-14T07:09:53;14.38;;;4.38;;
64297;SDS011;50639;53.270;7.956;2023-03-14T07:12:19;13.15;;;3.80;;
64297;SDS011;50639;53.270;7.956;2023-03-14T07:14:45;14.90;;;3.80;;
64297;SDS011;50639;53.270;7.956;2023-03-14T07:17:10;12.00;;;4.28;;
64297;SDS011;50639;53.270;7.956;2023-03-14T07:19:36;14.10;;;4.00;;
64297;SDS011;50639;53.270;7.956;2023-03-14T07:22:03;14.83;;;4.23;;
64297;SDS011;50639;53.270;7.956;2023-03-14T07:26:55;12.27;;;3.95;;
64297;SDS011;50639;53.270;7.956;2023-03-14T07:29:21;11.23;;;3.30;;
64297;SDS011;50639;53.270;7.956;2023-03-14T07:31:47;16.88;;;3.78;;
64297;SDS011;50639;53.270;7.956;2023-03-14T07:34:17;12.93;;;4.40;;
64297;SDS011;50639;53.270;7.956;2023-03-14T07:36:44;14.00;;;4.28;;
64297;SDS011;50639;53.270;7.956;2023-03-14T07:39:09;13.20;;;3.55;;
64297;SDS011;50639;53.270;7.956;2023-03-14T07:41:58;11.57;;;3.58;;
64297;SDS011;50639;53.270;7.956;2023-03-14T07:44:24;11.40;;;3.47;;
64297;SDS011;50639;53.270;7.956;2023-03-14T07:46:49;12.77;;;3.15;;
64297;SDS011;50639;53.270;7.956;2023-03-14T07:49:15;13.15;;;3.10;;
64297;SDS011;50639;53.270;7.956;2023-03-14T07:51:40;10.63;;;3.20;;
64297;SDS011;50639;53.270;7.956;2023-03-14T07:54:06;10.20;;;3.30;;
64297;SDS011;50639;53.270;7.956;2023-03-14T07:56:32;12.75;;;3.17;;
64297;SDS011;50639;53.270;7.956;2023-03-14T07:58:58;8.82;;;3.10;;
64297;SDS011;50639;53.270;7.956;2023-03-14T08:01:23;11.43;;;3.22;;
64297;SDS011;50639;53.270;7.956;2023-03-14T08:03:49;11.27;;;3.33;;
64297;SDS011;50639;53.270;7.956;2023-03-14T08:06:14;13.32;;;2.65;;
64297;SDS011;50639;53.270;7.956;2023-03-14T08:08:39;6.85;;;2.08;;
64297;SDS011;50639;53.270;7.956;2023-03-14T08:11:06;10.43;;;2.15;;
64297;SDS011;50639;53.270;7.956;2023-03-14T08:13:34;11.15;;;2.60;;
64297;SDS011;50639;53.270;7.956;2023-03-14T08:16:00;10.82;;;2.30;;
64297;SDS011;50639;53.270;7.956;2023-03-14T08:18:25;13.18;;;2.60;;
64297;SDS011;50639;53.270;7.956;2023-03-14T08:20:51;12.02;;;2.28;;
64297;SDS011;50639;53.270;7.956;2023-03-14T08:23:16;6.57;;;1.77;;
64297;SDS011;50639;53.270;7.956;2023-03-14T08:25:42;9.30;;;1.67;;
64297;SDS011;50639;53.270;7.956;2023-03-14T08:28:08;10.55;;;2.20;;
64297;SDS011;50639;53.270;7.956;2023-03-14T08:30:34;8.77;;;1.75;;
64297;SDS011;50639;53.270;7.956;2023-03-14T08:32:59;8.80;;;2.45;;
64297;SDS011;50639;53.270;7.956;2023-03-14T08:35:25;4.72;;;1.55;;
64297;SDS011;50639;53.270;7.956;2023-03-14T08:37:52;5.17;;;1.40;;
64297;SDS011;50639;53.270;7.956;2023-03-14T08:40:17;3.42;;;1.52;;
64297;SDS011;50639;53.270;7.956;2023-03-14T08:42:43;4.20;;;1.27;;
64297;SDS011;50639;53.270;7.956;2023-03-14T08:45:10;2.03;;;1.13;;
64297;SDS011;50639;53.270;7.956;2023-03-14T08:47:38;2.28;;;1.08;;
64297;SDS011;50639;53.270;7.956;2023-03-14T08:50:04;1.92;;;0.93;;
64297;SDS011;50639;53.270;7.956;2023-03-14T08:52:31;2.38;;;1.33;;
64297;SDS011;50639;53.270;7.956;2023-03-14T08:54:57;0.90;;;0.90;;
64297;SDS011;50639;53.270;7.956;2023-03-14T08:57:22;1.75;;;0.90;;
64297;SDS011;50639;53.270;7.956;2023-03-14T08:59:52;1.25;;;1.02;;
64297;SDS011;50639;53.270;7.956;2023-03-14T09:02:19;3.00;;;1.10;;
64297;SDS011;50639;53.270;7.956;2023-03-14T09:04:45;0.88;;;0.88;;
64297;SDS011;50639;53.270;7.956;2023-03-14T09:07:10;2.10;;;1.08;;
64297;SDS011;50639;53.270;7.956;2023-03-14T09:09:36;0.85;;;0.77;;
64297;SDS011;50639;53.270;7.956;2023-03-14T09:12:02;2.55;;;1.02;;
64297;SDS011;50639;53.270;7.956;2023-03-14T09:14:27;1.70;;;0.95;;
64297;SDS011;50639;53.270;7.956;2023-03-14T09:16:54;1.17;;;0.90;;
64297;SDS011;50639;53.270;7.956;2023-03-14T09:19:19;4.22;;;1.33;;
64297;SDS011;50639;53.270;7.956;2023-03-14T09:21:45;2.67;;;1.30;;
64297;SDS011;50639;53.270;7.956;2023-03-14T09:24:11;1.85;;;1.48;;
64297;SDS011;50639;53.270;7.956;2023-03-14T09:26:36;2.05;;;1.10;;
64297;SDS011;50639;53.270;7.956;2023-03-14T09:29:02;3.47;;;1.25;;
64297;SDS011;50639;53.270;7.956;2023-03-14T09:31:28;3.20;;;1.42;;
64297;SDS011;50639;53.270;7.956;2023-03-14T09:33:54;1.83;;;1.10;;
64297;SDS011;50639;53.270;7.956;2023-03-14T09:36:20;2.22;;;1.38;;
64297;SDS011;50639;53.270;7.956;2023-03-14T09:38:46;3.08;;;1.35;;
64297;SDS011;50639;53.270;7.956;2023-03-14T09:41:13;3.95;;;2.58;;
64297;SDS011;50639;53.270;7.956;2023-03-14T09:43:41;7.07;;;1.80;;
64297;SDS011;50639;53.270;7.956;2023-03-14T09:46:09;12.05;;;2.25;;
64297;SDS011;50639;53.270;7.956;2023-03-14T09:48:36;2.30;;;1.40;;
64297;SDS011;50639;53.270;7.956;2023-03-14T09:51:06;5.30;;;1.70;;
64297;SDS011;50639;53.270;7.956;2023-03-14T09:53:42;6.47;;;1.90;;
64297;SDS011;50639;53.270;7.956;2023-03-14T09:56:20;6.13;;;1.83;;
64297;SDS011;50639;53.270;7.956;2023-03-14T09:58:50;5.22;;;1.70;;
64297;SDS011;50639;53.270;7.956;2023-03-14T10:01:22;5.60;;;1.77;;
64297;SDS011;50639;53.270;7.956;2023-03-14T10:03:50;6.95;;;2.08;;
64297;SDS011;50639;53.270;7.956;2023-03-14T10:06:18;13.23;;;2.15;;
64297;SDS011;50639;53.270;7.956;2023-03-14T10:08:51;10.60;;;2.20;;
64297;SDS011;50639;53.270;7.956;2023-03-14T10:11:18;9.55;;;2.60;;
64297;SDS011;50639;53.270;7.956;2023-03-14T10:14:17;11.77;;;2.80;;
64297;SDS011;50639;53.270;7.956;2023-03-14T10:16:44;9.65;;;2.22;;
64297;SDS011;50639;53.270;7.956;2023-03-14T10:19:12;8.65;;;2.28;;
64297;SDS011;50639;53.270;7.956;2023-03-14T10:21:43;9.82;;;2.58;;
64297;SDS011;50639;53.270;7.956;2023-03-14T10:24:21;13.02;;;2.72;;
64297;SDS011;50639;53.270;7.956;2023-03-14T10:26:54;13.13;;;2.85;;
64297;SDS011;50639;53.270;7.956;2023-03-14T10:29:23;12.82;;;3.22;;
64297;SDS011;50639;53.270;7.956;2023-03-14T10:32:05;13.32;;;3.30;;
64297;SDS011;50639;53.270;7.956;2023-03-14T10:34:36;14.35;;;3.42;;
64297;SDS011;50639;53.270;7.956;2023-03-14T10:39:48;24.45;;;4.18;;
64297;SDS011;50639;53.270;7.956;2023-03-14T10:44:46;17.77;;;3.63;;
64297;SDS011;50639;53.270;7.956;2023-03-14T10:47:21;15.35;;;3.45;;
64297;SDS011;50639;53.270;7.956;2023-03-14T10:49:49;26.25;;;4.60;;
64297;SDS011;50639;53.270;7.956;2023-03-14T10:52:22;13.63;;;3.85;;
64297;SDS011;50639;53.270;7.956;2023-03-14T10:54:58;19.92;;;3.95;;
64297;SDS011;50639;53.270;7.956;2023-03-14T10:57:26;21.60;;;3.97;;
64297;SDS011;50639;53.270;7.956;2023-03-14T10:59:52;19.67;;;3.50;;
64297;SDS011;50639;53.270;7.956;2023-03-14T11:02:34;19.67;;;3.70;;
64297;SDS011;50639;53.270;7.956;2023-03-14T11:05:15;20.45;;;3.65;;
64297;SDS011;50639;53.270;7.956;2023-03-14T11:07:51;21.23;;;4.53;;
64297;SDS011;50639;53.270;7.956;2023-03-14T11:10:32;19.35;;;4.60;;
64297;SDS011;50639;53.270;7.956;2023-03-14T11:21:50;22.25;;;3.58;;
64297;SDS011;50639;53.270;7.956;2023-03-14T11:26:48;30.65;;;4.78;;
64297;SDS011;50639;53.270;7.956;2023-03-14T11:29:20;19.95;;;4.97;;
64297;SDS011;50639;53.270;7.956;2023-03-14T11:31:50;28.83;;;4.75;;
64297;SDS011;50639;53.270;7.956;2023-03-14T11:34:27;21.70;;;3.97;;
64297;SDS011;50639;53.270;7.956;2023-03-14T11:36:59;20.27;;;3.72;;
64297;SDS011;50639;53.270;7.956;2023-03-14T11:39:34;15.95;;;3.72;;
64297;SDS011;50639;53.270;7.956;2023-03-14T11:42:04;16.95;;;3.75;;
64297;SDS011;50639;53.270;7.956;2023-03-14T11:44:39;22.95;;;4.53;;
64297;SDS011;50639;53.270;7.956;2023-03-14T11:47:24;17.27;;;4.15;;
64297;SDS011;50639;53.270;7.956;2023-03-14T11:50:00;20.55;;;4.43;;
64297;SDS011;50639;53.270;7.956;2023-03-14T11:52:34;21.83;;;4.45;;
64297;SDS011;50639;53.270;7.956;2023-03-14T11:55:13;20.63;;;3.72;;
64297;SDS011;50639;53.270;7.956;2023-03-14T11:57:44;16.80;;;3.38;;
64297;SDS011;50639;53.270;7.956;2023-03-14T12:00:16;14.55;;;2.58;;
64297;SDS011;50639;53.270;7.956;2023-03-14T12:02:45;15.73;;;3.45;;
64297;SDS011;50639;53.270;7.956;2023-03-14T12:05:28;16.73;;;3.17;;
64297;SDS011;50639;53.270;7.956;2023-03-14T12:13:09;11.10;;;2.72;;
64297;SDS011;50639;53.270;7.956;2023-03-14T12:15:40;12.57;;;2.92;;
64297;SDS011;50639;53.270;7.956;2023-03-14T12:20:56;16.15;;;2.88;;
64297;SDS011;50639;53.270;7.956;2023-03-14T12:23:27;17.85;;;4.05;;
64297;SDS011;50639;53.270;7.956;2023-03-14T12:28:37;12.68;;;3.03;;
64297;SDS011;50639;53.270;7.956;2023-03-14T12:42:43;6.68;;;2.30;;
64297;SDS011;50639;53.270;7.956;2023-03-14T12:45:22;7.78;;;2.70;;
64297;SDS011;50639;53.270;7.956;2023-03-14T12:47:53;9.73;;;2.95;;
64297;SDS011;50639;53.270;7.956;2023-03-14T12:50:31;8.60;;;2.60;;
64297;SDS011;50639;53.270;7.956;2023-03-14T13:01:52;12.38;;;2.88;;
64297;SDS011;50639;53.270;7.956;2023-03-14T13:04:25;18.70;;;3.33;;
64297;SDS011;50639;53.270;7.956;2023-03-14T13:07:01;17.65;;;3.33;;
64297;SDS011;50639;53.270;7.956;2023-03-14T13:11:53;15.65;;;3.10;;
64297;SDS011;50639;53.270;7.956;2023-03-14T13:14:18;17.73;;;3.65;;
64297;SDS011;50639;53.270;7.956;2023-03-14T13:16:46;14.25;;;3.78;;
64297;SDS011;50639;53.270;7.956;2023-03-14T13:19:19;15.48;;;3.55;;
64297;SDS011;50639;53.270;7.956;2023-03-14T13:21:48;13.63;;;3.20;;
64297;SDS011;50639;53.270;7.956;2023-03-14T13:24:21;10.93;;;2.80;;
64297;SDS011;50639;53.270;7.956;2023-03-14T13:26:48;20.02;;;3.78;;
64297;SDS011;50639;53.270;7.956;2023-03-14T13:29:24;11.27;;;3.03;;
64297;SDS011;50639;53.270;7.956;2023-03-14T13:31:53;9.38;;;2.67;;
64297;SDS011;50639;53.270;7.956;2023-03-14T13:34:24;13.07;;;3.05;;
64297;SDS011;50639;53.270;7.956;2023-03-14T13:36:59;12.00;;;2.15;;
64297;SDS011;50639;53.270;7.956;2023-03-14T13:39:26;11.35;;;2.63;;
64297;SDS011;50639;53.270;7.956;2023-03-14T13:41:55;15.10;;;2.75;;
64297;SDS011;50639;53.270;7.956;2023-03-14T13:44:37;16.73;;;3.58;;
64297;SDS011;50639;53.270;7.956;2023-03-14T13:47:05;10.63;;;3.03;;
64297;SDS011;50639;53.270;7.956;2023-03-14T13:49:36;16.55;;;3.53;;
64297;SDS011;50639;53.270;7.956;2023-03-14T13:52:03;18.13;;;3.45;;
64297;SDS011;50639;53.270;7.956;2023-03-14T13:54:30;13.38;;;3.58;;
64297;SDS011;50639;53.270;7.956;2023-03-14T13:57:00;17.13;;;4.13;;
64297;SDS011;50639;53.270;7.956;2023-03-14T13:59:31;15.93;;;3.08;;
64297;SDS011;50639;53.270;7.956;2023-03-14T14:01:59;11.88;;;3.05;;
64297;SDS011;50639;53.270;7.956;2023-03-14T14:04:28;10.07;;;2.92;;
64297;SDS011;50639;53.270;7.956;2023-03-14T14:06:58;8.18;;;2.67;;
64297;SDS011;50639;53.270;7.956;2023-03-14T14:09:28;11.88;;;2.95;;
64297;SDS011;50639;53.270;7.956;2023-03-14T14:12:00;9.02;;;2.67;;
64297;SDS011;50639;53.270;7.956;2023-03-14T14:14:36;13.18;;;2.50;;
64297;SDS011;50639;53.270;7.956;2023-03-14T14:19:35;10.75;;;3.00;;
64297;SDS011;50639;53.270;7.956;2023-03-14T14:22:02;14.38;;;3.40;;
64297;SDS011;50639;53.270;7.956;2023-03-14T14:24:30;11.10;;;3.10;;
64297;SDS011;50639;53.270;7.956;2023-03-14T14:27:01;14.90;;;3.17;;
64297;SDS011;50639;53.270;7.956;2023-03-14T14:29:33;12.38;;;3.28;;
64297;SDS011;50639;53.270;7.956;2023-03-14T14:32:20;11.07;;;2.72;;
64297;SDS011;50639;53.270;7.956;2023-03-14T14:37:27;13.88;;;3.90;;
64297;SDS011;50639;53.270;7.956;2023-03-14T14:39:55;9.60;;;2.92;;
64297;SDS011;50639;53.270;7.956;2023-03-14T14:42:30;13.30;;;2.70;;
64297;SDS011;50639;53.270;7.956;2023-03-14T14:44:57;12.40;;;2.92;;
64297;SDS011;50639;53.270;7.956;2023-03-14T14:47:24;11.20;;;2.63;;
64297;SDS011;50639;53.270;7.956;2023-03-14T14:49:52;13.00;;;2.80;;
64297;SDS011;50639;53.270;7.956;2023-03-14T14:52:30;16.88;;;2.90;;
64297;SDS011;50639;53.270;7.956;2023-03-14T14:54:59;11.20;;;2.53;;
64297;SDS011;50639;53.270;7.956;2023-03-14T14:57:31;11.93;;;2.70;;
64297;SDS011;50639;53.270;7.956;2023-03-14T15:00:04;11.63;;;2.60;;
64297;SDS011;50639;53.270;7.956;2023-03-14T15:02:44;9.65;;;2.67;;
64297;SDS011;50639;53.270;7.956;2023-03-14T15:05:14;11.55;;;2.90;;
64297;SDS011;50639;53.270;7.956;2023-03-14T15:07:42;15.00;;;3.38;;
64297;SDS011;50639;53.270;7.956;2023-03-14T15:10:10;11.75;;;2.88;;
64297;SDS011;50639;53.270;7.956;2023-03-14T15:12:42;11.93;;;2.70;;
64297;SDS011;50639;53.270;7.956;2023-03-14T15:15:08;8.45;;;2.35;;
64297;SDS011;50639;53.270;7.956;2023-03-14T15:17:35;8.60;;;2.80;;
64297;SDS011;50639;53.270;7.956;2023-03-14T15:20:03;12.05;;;2.40;;
64297;SDS011;50639;53.270;7.956;2023-03-14T15:22:32;16.88;;;2.60;;
64297;SDS011;50639;53.270;7.956;2023-03-14T15:24:57;7.28;;;2.33;;
64297;SDS011;50639;53.270;7.956;2023-03-14T15:27:23;11.07;;;2.70;;
64297;SDS011;50639;53.270;7.956;2023-03-14T15:29:49;15.57;;;2.90;;
64297;SDS011;50639;53.270;7.956;2023-03-14T15:32:15;12.45;;;3.20;;
64297;SDS011;50639;53.270;7.956;2023-03-14T15:34:43;17.88;;;3.00;;
64297;SDS011;50639;53.270;7.956;2023-03-14T15:37:12;17.20;;;3.42;;
64297;SDS011;50639;53.270;7.956;2023-03-14T15:39:44;10.73;;;2.65;;
64297;SDS011;50639;53.270;7.956;2023-03-14T15:42:10;13.30;;;2.95;;
64297;SDS011;50639;53.270;7.956;2023-03-14T15:44:42;13.95;;;2.85;;
64297;SDS011;50639;53.270;7.956;2023-03-14T15:47:11;13.45;;;2.88;;
64297;SDS011;50639;53.270;7.956;2023-03-14T15:49:39;15.75;;;3.15;;
64297;SDS011;50639;53.270;7.956;2023-03-14T15:52:05;14.52;;;3.20;;
64297;SDS011;50639;53.270;7.956;2023-03-14T15:54:33;10.80;;;2.60;;
64297;SDS011;50639;53.270;7.956;2023-03-14T15:57:01;15.90;;;3.42;;
64297;SDS011;50639;53.270;7.956;2023-03-14T15:59:27;10.77;;;2.83;;
64297;SDS011;50639;53.270;7.956;2023-03-14T16:01:53;16.00;;;4.40;;
64297;SDS011;50639;53.270;7.956;2023-03-14T16:04:18;12.60;;;3.83;;